Time;durP1;ratioP1;P1;durP2;ratioP2;P2;SDS_P1;SDS_P2;PMS_P1;PMS_P2;Temp;Humidity;BMP_temperature;BMP_pressure;BME280_temperature;BME280_humidity;BME280_pressure;Samples;Min_cycle;Max_cycle;Signal;HPM_P1;HPM_P2
2021/04/18 00:02:17;;;;;;;56.65;35.98;;;;;;;13.14;44.81;100858.20;1785781;80;21179;-76
2021/04/18 00:04:45;;;;;;;58.90;35.90;;;;;;;13.11;44.86;100853.14;1785843;80;21512;-75
2021/04/18 00:07:13;;;;;;;;;;;;;;;13.10;44.94;100856.84;1788475;80;21093;-75
2021/04/18 00:09:40;;;;;;;59.77;33.93;;;;;;;13.11;44.92;100853.14;1786265;79;20214;-76
2021/04/18 00:12:08;;;;;;;65.75;36.13;;;;;;;13.10;44.93;100852.81;1785791;80;21156;-74
2021/04/18 00:14:36;;;;;;;69.65;39.75;;;;;;;13.10;44.97;100845.25;1785663;80;21080;-75
2021/04/18 00:17:03;;;;;;;71.02;39.85;;;;;;;13.10;44.99;100840.70;1785845;79;21506;-75
2021/04/18 00:19:35;;;;;;;55.92;32.95;;;;;;;13.12;44.99;100845.91;1785952;80;21155;-75
2021/04/18 00:22:01;;;;;;;48.80;31.48;;;;;;;13.12;44.99;100843.22;1785815;79;21132;-75
2021/04/18 00:24:29;;;;;;;43.68;28.73;;;;;;;13.12;44.97;100840.02;1786033;80;21610;-75
2021/04/18 00:26:56;;;;;;;40.33;25.52;;;;;;;13.12;44.94;100833.30;1785124;80;21048;-77
2021/04/18 00:29:23;;;;;;;40.63;24.90;;;;;;;13.12;44.93;100827.08;1785891;80;21508;-76
2021/04/18 00:31:50;;;;;;;;;;;;;;;13.12;44.99;100835.99;1788449;80;21139;-75
2021/04/18 00:34:19;;;;;;;38.88;24.92;;;;;;;13.14;45.00;100839.38;1786150;80;20293;-76
2021/04/18 00:36:47;;;;;;;39.88;26.15;;;;;;;13.11;45.07;100831.62;1758128;80;21056;-76
2021/04/18 00:39:15;;;;;;;40.45;25.60;;;;;;;13.14;45.04;100834.50;1785891;80;21144;-74
2021/04/18 00:41:43;;;;;;;37.50;26.95;;;;;;;13.17;44.96;100831.45;1786014;80;21073;-76
2021/04/18 00:44:11;;;;;;;35.50;24.18;;;;;;;13.19;44.93;100831.64;1785832;80;21574;-75
2021/04/18 00:46:40;;;;;;;34.48;25.12;;;;;;;13.20;44.89;100834.66;1785940;79;21587;-75
2021/04/18 00:49:07;;;;;;;;;;;;;;;13.22;44.88;100830.52;1788592;80;21563;-75
2021/04/18 00:51:36;;;;;;;35.50;24.70;;;;;;;13.21;44.87;100835.00;1785382;80;20259;-75
2021/04/18 00:54:04;;;;;;;39.33;26.30;;;;;;;13.18;44.94;100834.00;1784410;80;21575;-75
2021/04/18 00:56:31;;;;;;;35.58;24.90;;;;;;;13.17;44.97;100832.33;1784073;79;21163;-74
2021/04/18 00:58:59;;;;;;;43.75;29.45;;;;;;;13.16;45.04;100840.03;1784441;79;21176;-75
2021/04/18 01:01:26;;;;;;;44.90;30.10;;;;;;;13.17;44.99;100834.15;1785752;80;21448;-77
2021/04/18 01:03:54;;;;;;;38.80;26.87;;;;;;;13.27;44.83;100835.40;1757911;80;21056;-75
2021/04/18 01:06:22;;;;;;;34.70;24.18;;;;;;;13.25;44.90;100829.33;1785878;80;21120;-77
2021/04/18 01:08:50;;;;;;;32.63;22.20;;;;;;;13.24;44.94;100834.38;1798023;77;21547;-74
2021/04/18 01:11:21;;;;;;;32.33;22.58;;;;;;;13.30;44.87;100833.19;1758497;80;21116;-75
2021/04/18 01:13:48;;;;;;;;;;;;;;;13.30;44.97;100836.39;1787397;79;21155;-75
2021/04/18 01:16:16;;;;;;;36.80;25.70;;;;;;;13.28;45.04;100837.91;1785349;79;20247;-76
2021/04/18 01:18:44;;;;;;;35.10;24.92;;;;;;;13.27;45.05;100838.09;1785939;79;21045;-75
2021/04/18 01:21:13;;;;;;;33.40;22.67;;;;;;;13.27;45.12;100838.09;1785722;80;21524;-75
2021/04/18 01:23:48;;;;;;;33.55;24.20;;;;;;;13.28;45.14;100833.87;1783449;80;21151;-75
2021/04/18 01:26:18;;;;;;;32.00;24.15;;;;;;;13.35;45.10;100836.25;1751024;80;21195;-75
2021/04/18 01:28:46;;;;;;;25.62;20.65;;;;;;;13.35;45.16;100832.22;1784351;79;21196;-75
2021/04/18 01:31:15;;;;;;;28.12;21.07;;;;;;;13.38;45.22;100822.95;1784276;80;21167;-75
2021/04/18 01:33:43;;;;;;;27.15;19.02;;;;;;;13.40;45.18;100820.95;1784214;80;21196;-75
2021/04/18 01:36:12;;;;;;;26.90;18.60;;;;;;;13.42;45.15;100826.48;1784184;80;21192;-74
2021/04/18 01:38:39;;;;;;;24.52;17.80;;;;;;;13.45;45.09;100825.32;1784460;80;21171;-75
2021/04/18 01:41:10;;;;;;;27.17;20.45;;;;;;;13.48;44.98;100829.00;1785822;80;21164;-75
2021/04/18 01:43:39;;;;;;;24.65;17.40;;;;;;;13.52;44.82;100824.13;1785948;80;21187;-74
2021/04/18 01:46:08;;;;;;;23.67;17.25;;;;;;;13.54;44.76;100824.31;1757357;80;21143;-75
2021/04/18 01:48:37;;;;;;;24.20;17.42;;;;;;;13.54;44.68;100821.62;1784683;80;21156;-76
2021/04/18 01:51:08;;;;;;;23.38;17.52;;;;;;;13.52;44.67;100817.40;1784478;80;21399;-75
2021/04/18 01:53:36;;;;;;;24.18;17.50;;;;;;;13.50;44.62;100808.16;1784388;80;21187;-76
2021/04/18 01:56:06;;;;;;;24.40;17.70;;;;;;;13.51;44.61;100818.42;1784455;80;21356;-77
2021/04/18 01:58:35;;;;;;;23.30;18.07;;;;;;;13.49;44.63;100813.22;1784313;80;21615;-75
2021/04/18 02:01:07;;;;;;;22.95;17.92;;;;;;;13.48;44.65;100812.85;1785441;80;21211;-75
2021/04/18 02:03:35;;;;;;;24.77;18.62;;;;;;;13.49;44.65;100813.69;1758522;80;21063;-75
2021/04/18 02:06:06;;;;;;;27.67;18.98;;;;;;;13.46;44.69;100810.84;1757354;80;21132;-75
2021/04/18 02:08:37;;;;;;;26.27;19.30;;;;;;;13.47;44.71;100806.30;1785651;80;21558;-75
2021/04/18 02:11:04;;;;;;;;;;;;;;;13.45;44.69;100809.17;1788475;80;21172;-75
2021/04/18 02:13:32;;;;;;;21.30;16.05;;;;;;;13.42;44.69;100805.47;1786149;80;20246;-74
2021/04/18 02:16:10;;;;;;;20.75;14.70;;;;;;;13.37;44.78;100807.82;1783595;80;21195;-74
2021/04/18 02:18:39;;;;;;;20.55;16.00;;;;;;;13.32;44.74;100806.98;1785475;80;21621;-77
2021/04/18 02:21:08;;;;;;;21.62;15.45;;;;;;;13.29;44.83;100807.81;1785921;80;21152;-75
2021/04/18 02:23:36;;;;;;;23.27;17.20;;;;;;;13.27;44.91;100807.15;1785820;80;21076;-75
2021/04/18 02:26:05;;;;;;;29.00;20.57;;;;;;;13.28;44.95;100811.01;1785829;80;21109;-75
2021/04/18 02:28:33;;;;;;;32.42;23.07;;;;;;;13.28;44.99;100804.28;1785838;80;21076;-75
2021/04/18 02:31:03;;;;;;;34.90;23.10;;;;;;;13.30;44.95;100806.80;1785772;80;21076;-75
2021/04/18 02:33:32;;;;;;;29.60;23.22;;;;;;;13.32;44.91;100803.45;1784625;80;21575;-76
2021/04/18 02:36:03;;;;;;;26.30;21.48;;;;;;;13.33;44.84;100799.74;1785740;80;21192;-75
2021/04/18 02:38:30;;;;;;;24.43;18.52;;;;;;;13.32;44.76;100791.34;1785941;79;21159;-76
2021/04/18 02:40:58;;;;;;;23.67;17.67;;;;;;;13.23;44.86;100799.08;1785759;80;21151;-75
2021/04/18 02:43:25;;;;;;;24.00;17.98;;;;;;;13.12;44.93;100798.84;1785891;80;21084;-76
2021/04/18 02:45:53;;;;;;;23.70;17.30;;;;;;;13.04;45.07;100794.31;1785819;80;21084;-76
2021/04/18 02:48:21;;;;;;;24.32;17.25;;;;;;;13.01;45.10;100785.73;1757544;80;21152;-75
2021/04/18 02:50:50;;;;;;;21.60;16.48;;;;;;;13.00;45.20;100792.13;1785776;80;21136;-75
2021/04/18 02:53:17;;;;;;;24.15;17.35;;;;;;;12.98;45.29;100792.27;1757333;80;21081;-74
2021/04/18 02:55:46;;;;;;;25.92;16.65;;;;;;;13.00;45.34;100795.66;1733161;80;21084;-75
2021/04/18 02:58:21;;;;;;;22.48;16.65;;;;;;;13.01;45.36;100794.64;1783844;80;21156;-73
2021/04/18 03:00:50;;;;;;;22.95;16.23;;;;;;;13.03;45.39;100797.16;1785695;80;21143;-73
2021/04/18 03:03:18;;;;;;;24.72;17.37;;;;;;;13.02;45.40;100799.00;1785926;80;21187;-73
2021/04/18 03:05:47;;;;;;;23.42;16.37;;;;;;;13.05;45.48;100802.72;1785737;80;21064;-74
2021/04/18 03:08:14;;;;;;;25.97;17.32;;;;;;;13.07;45.52;100802.03;1785853;80;21074;-75
2021/04/18 03:10:42;;;;;;;23.35;17.65;;;;;;;13.10;45.46;100803.56;1757354;80;21148;-75
2021/04/18 03:13:10;;;;;;;25.30;19.65;;;;;;;13.13;45.42;100802.73;1788442;79;21184;-75
2021/04/18 03:15:40;;;;;;;28.80;18.90;;;;;;;13.15;45.32;100799.36;1817825;78;21167;-75
2021/04/18 03:18:09;;;;;;;23.57;19.02;;;;;;;13.19;45.28;100807.95;1818007;78;21112;-74
2021/04/18 03:20:36;;;;;;;27.40;18.27;;;;;;;13.21;45.21;100804.57;1817199;79;21152;-76
2021/04/18 03:23:07;;;;;;;27.50;19.92;;;;;;;13.23;45.21;100807.14;1817433;78;21112;-76
2021/04/18 03:25:35;;;;;;;25.37;18.48;;;;;;;13.24;45.19;100814.20;1816780;78;21184;-75
2021/04/18 03:28:05;;;;;;;28.25;19.55;;;;;;;13.26;45.29;100810.83;1816350;79;21140;-75
2021/04/18 03:30:39;;;;;;;26.48;18.40;;;;;;;13.26;45.33;100810.83;1814983;79;21670;-75
2021/04/18 03:33:08;;;;;;;22.90;18.10;;;;;;;13.26;45.42;100810.83;1816032;79;21180;-75
2021/04/18 03:35:37;;;;;;;28.30;18.92;;;;;;;13.25;45.44;100812.67;1816211;79;21183;-75
2021/04/18 03:38:05;;;;;;;21.42;16.70;;;;;;;13.25;45.43;100814.02;1816074;79;21172;-75
2021/04/18 03:40:33;;;;;;;23.50;17.25;;;;;;;13.27;45.39;100811.19;1816050;79;21473;-75
2021/04/18 03:43:01;;;;;;;27.20;16.75;;;;;;;13.27;45.32;100806.64;1805706;79;21159;-75
2021/04/18 03:45:28;;;;;;;25.70;17.10;;;;;;;13.29;45.24;100805.12;1784195;80;21195;-75
2021/04/18 03:47:57;;;;;;;26.70;17.12;;;;;;;13.31;45.25;100812.53;1784363;80;21167;-75
2021/04/18 03:50:25;;;;;;;21.97;15.65;;;;;;;13.32;45.28;100807.48;1784211;80;21684;-75
2021/04/18 03:52:57;;;;;;;20.80;15.65;;;;;;;13.33;45.31;100807.81;1779974;80;21187;-75
2021/04/18 03:55:26;;;;;;;19.92;15.75;;;;;;;13.35;45.30;100807.13;1784484;80;21179;-75
2021/04/18 03:57:54;;;;;;;20.32;15.72;;;;;;;13.38;45.36;100802.77;1785375;80;21135;-76
2021/04/18 04:00:23;;;;;;;24.70;18.27;;;;;;;13.41;45.34;100795.72;1780846;79;21188;-75
2021/04/18 04:02:54;;;;;;;22.40;17.35;;;;;;;13.44;45.31;100794.02;1816160;79;21215;-75
2021/04/18 04:05:22;;;;;;;18.32;14.60;;;;;;;13.46;45.30;100793.36;1817029;78;21168;-75
2021/04/18 04:07:49;;;;;;;17.75;14.20;;;;;;;13.50;45.32;100794.70;1817417;78;21111;-76
2021/04/18 04:10:18;;;;;;;17.45;14.50;;;;;;;13.34;45.74;100793.34;1817444;78;21203;-75
2021/04/18 04:12:47;;;;;;;18.20;15.08;;;;;;;13.49;45.48;100793.03;1816982;79;21171;-77
2021/04/18 04:15:15;;;;;;;23.22;14.60;;;;;;;13.37;45.79;100799.23;1787590;79;21694;-75
2021/04/18 04:17:45;;;;;;;22.62;15.25;;;;;;;13.34;45.89;100790.15;1789517;79;21474;-75
2021/04/18 04:20:20;;;;;;;16.75;13.90;;;;;;;13.37;45.89;100790.33;1815328;79;21167;-75
2021/04/18 04:22:50;;;;;;;18.87;14.40;;;;;;;13.44;45.81;100786.81;1810085;79;21528;-76
2021/04/18 04:25:23;;;;;;;18.75;14.55;;;;;;;13.48;45.87;100787.28;1809640;79;21062;-76
2021/04/18 04:27:50;;;;;;;18.05;14.80;;;;;;;13.52;45.91;100784.59;1801418;79;21176;-75
2021/04/18 04:30:17;;;;;;;;;;;;;;;13.52;45.98;100785.11;1800946;78;21173;-75
2021/04/18 04:32:44;;;;;;;16.77;14.47;;;;;;;13.57;45.93;100777.36;1801217;79;20263;-75
2021/04/18 04:35:13;;;;;;;19.73;14.45;;;;;;;13.55;45.97;100778.05;1798605;78;21564;-75
2021/04/18 04:37:40;;;;;;;16.70;14.55;;;;;;;13.59;45.98;100770.81;1801727;79;21196;-75
2021/04/18 04:40:08;;;;;;;;;;;;;;;13.62;46.04;100766.41;1794505;80;21122;-75
2021/04/18 04:42:35;;;;;;;28.27;14.97;;;;;;;13.68;46.10;100765.75;1800491;79;20474;-75
2021/04/18 04:45:04;;;;;;;19.17;14.35;;;;;;;13.76;46.02;100760.00;1810844;78;21788;-76
2021/04/18 04:47:31;;;;;;;18.50;13.43;;;;;;;13.79;46.08;100760.50;1807206;78;21121;-75
2021/04/18 04:50:00;;;;;;;18.23;14.45;;;;;;;13.87;46.14;100756.96;1793328;80;21150;-75
2021/04/18 04:52:27;;;;;;;19.98;14.73;;;;;;;13.95;46.00;100755.09;1807301;79;21156;-75
2021/04/18 04:54:54;;;;;;;21.68;15.70;;;;;;;14.03;45.95;100750.16;1776049;79;21193;-75
2021/04/18 04:57:22;;;;;;;22.58;17.20;;;;;;;14.12;45.93;100758.55;1807926;79;21205;-75
2021/04/18 04:59:49;;;;;;;21.82;16.77;;;;;;;14.20;45.82;100753.13;1805322;78;21185;-76
2021/04/18 05:02:16;;;;;;;23.02;16.32;;;;;;;14.08;46.24;100749.16;1791942;80;21152;-75
2021/04/18 05:04:43;;;;;;;20.32;15.38;;;;;;;14.36;45.80;100747.36;1780509;79;21460;-75
2021/04/18 05:07:10;;;;;;;;;;;;;;;14.59;45.26;100748.28;1804592;77;21171;-75
2021/04/18 05:09:39;;;;;;;18.60;14.07;;;;;;;14.69;44.96;100746.19;1802594;79;20303;-76
2021/04/18 05:12:08;;;;;;;21.27;15.78;;;;;;;14.76;44.79;100748.16;1806566;79;21185;-75
2021/04/18 05:14:36;;;;;;;25.60;14.07;;;;;;;14.84;44.73;100752.16;1804835;79;21200;-76
2021/04/18 05:17:03;;;;;;;15.63;13.83;;;;;;;14.92;44.68;100753.45;1799616;79;21200;-76
2021/04/18 05:19:31;;;;;;;16.97;14.03;;;;;;;15.02;44.57;100752.70;1805055;79;21668;-76
2021/04/18 05:21:58;;;;;;;20.43;14.93;;;;;;;15.10;44.52;100752.65;1800327;79;21217;-75
2021/04/18 05:24:25;;;;;;;;;;;;;;;15.18;44.41;100749.05;1811528;79;21146;-75
2021/04/18 05:26:52;;;;;;;20.45;14.10;;;;;;;15.27;44.33;100747.13;1804278;79;20291;-76
2021/04/18 05:29:20;;;;;;;20.50;15.68;;;;;;;15.34;44.17;100748.06;1804092;78;21190;-75
2021/04/18 05:31:47;;;;;;;21.05;15.63;;;;;;;15.34;44.13;100749.41;1812568;77;21157;-75
2021/04/18 05:34:15;;;;;;;23.22;16.87;;;;;;;15.37;44.12;100751.76;1802041;78;21200;-75
2021/04/18 05:36:42;;;;;;;21.20;16.82;;;;;;;15.38;44.31;100747.52;1782964;80;21191;-75
2021/04/18 05:39:10;;;;;;;21.45;17.10;;;;;;;15.46;44.38;100755.55;1811191;79;21192;-76
2021/04/18 05:41:38;;;;;;;27.02;17.92;;;;;;;15.54;44.29;100754.64;1796324;79;21568;-74
2021/04/18 05:44:13;;;;;;;23.90;18.07;;;;;;;15.62;44.27;100749.14;1790283;77;21104;-75
2021/04/18 05:46:38;;;;;;;18.57;16.37;;;;;;;15.72;44.18;100751.12;1784395;80;21127;-75
2021/04/18 05:49:05;;;;;;;21.00;15.55;;;;;;;15.85;44.10;100749.13;1784785;80;21651;-74
2021/04/18 05:51:33;;;;;;;18.82;15.75;;;;;;;15.97;44.06;100754.38;1785266;79;21658;-77
2021/04/18 05:54:00;;;;;;;23.10;15.63;;;;;;;16.09;43.84;100748.01;1806925;79;21146;-76
2021/04/18 05:56:27;;;;;;;20.12;15.78;;;;;;;16.17;43.84;100754.67;1800183;78;21205;-76
2021/04/18 05:58:55;;;;;;;18.50;15.30;;;;;;;16.26;43.82;100750.49;1810328;79;21102;-75
2021/04/18 06:01:26;;;;;;;;;;;;;;;16.40;43.86;100755.06;1811433;79;21716;-75
2021/04/18 06:03:55;;;;;;;20.50;15.40;;;;;;;16.46;43.80;100755.66;1810457;79;20275;-76
2021/04/18 06:06:27;;;;;;;21.12;15.50;;;;;;;16.58;43.60;100754.14;1812053;78;21602;-77
2021/04/18 06:08:55;;;;;;;21.85;16.07;;;;;;;16.81;43.29;100752.66;1795879;79;21467;-77
2021/04/18 06:11:22;;;;;;;;;;;;;;;16.98;43.16;100757.30;1782143;79;21194;-76
2021/04/18 06:13:50;;;;;;;19.07;15.10;;;;;;;17.14;42.81;100753.51;1806157;79;20259;-75
2021/04/18 06:16:17;;;;;;;19.23;15.90;;;;;;;17.31;42.33;100750.02;1791542;80;21680;-76
2021/04/18 06:18:47;;;;;;;23.25;15.10;;;;;;;17.50;42.17;100753.41;1803510;79;21199;-76
2021/04/18 06:21:14;;;;;;;23.57;15.78;;;;;;;17.67;41.55;100748.02;1804450;79;21181;-75
2021/04/18 06:23:44;;;;;;;20.25;15.50;;;;;;;17.83;41.54;100741.47;1771771;79;21141;-76
2021/04/18 06:26:12;;;;;;;17.10;14.35;;;;;;;18.04;41.25;100742.45;1792373;80;21128;-76
2021/04/18 06:28:40;;;;;;;18.67;13.83;;;;;;;18.25;40.79;100746.39;1798478;79;21183;-76
2021/04/18 06:31:07;;;;;;;;;;;;;;;18.46;40.45;100740.86;1794083;80;21188;-76
2021/04/18 06:33:35;;;;;;;16.55;12.82;;;;;;;18.66;39.96;100731.94;1802066;79;20333;-76
2021/04/18 06:36:05;;;;;;;18.27;13.43;;;;;;;18.84;39.57;100734.94;1802071;79;21185;-76
2021/04/18 06:38:33;;;;;;;17.02;13.25;;;;;;;19.03;39.14;100736.05;1781516;79;21171;-77
2021/04/18 06:41:02;;;;;;;20.12;13.90;;;;;;;19.18;39.02;100733.13;1790635;78;21200;-76
2021/04/18 06:43:31;;;;;;;20.65;14.60;;;;;;;19.34;38.91;100734.58;1806278;79;21197;-76
2021/04/18 06:45:59;;;;;;;16.23;13.38;;;;;;;19.59;38.67;100737.51;1805843;79;21120;-76
2021/04/18 06:48:29;;;;;;;18.92;14.68;;;;;;;19.84;38.32;100734.45;1807083;79;21165;-77
2021/04/18 06:50:59;;;;;;;19.55;14.33;;;;;;;20.12;37.95;100729.26;1803932;79;21188;-77
2021/04/18 06:53:26;;;;;;;18.40;14.80;;;;;;;20.33;37.54;100730.34;1806315;79;21244;-78
2021/04/18 06:55:54;;;;;;;19.57;15.32;;;;;;;20.54;37.29;100736.57;1804060;78;21178;-77
2021/04/18 06:58:22;;;;;;;18.23;15.00;;;;;;;20.72;36.78;100739.41;1802380;79;21217;-76
2021/04/18 07:00:49;;;;;;;23.57;14.83;;;;;;;20.83;36.50;100741.42;1804266;78;21462;-76
2021/04/18 07:03:21;;;;;;;19.30;14.75;;;;;;;20.88;36.17;100738.87;1803824;79;21631;-76
2021/04/18 07:05:48;;;;;;;18.30;15.45;;;;;;;20.92;36.15;100725.13;1802414;77;21177;-75
2021/04/18 07:08:30;;;;;;;18.50;12.82;;;;;;;20.98;36.09;100728.85;1799515;78;21702;-76
2021/04/18 07:11:18;;;;;;;18.23;13.68;;;;;;;21.10;36.10;100727.10;1802338;79;21181;-76
2021/04/18 07:13:47;;;;;;;14.95;13.15;;;;;;;21.28;35.51;100728.53;1808466;79;21097;-76
2021/04/18 07:16:32;;;;;;;15.03;12.35;;;;;;;21.48;35.29;100728.91;1791105;80;21185;-76
2021/04/18 07:19:00;;;;;;;21.37;12.75;;;;;;;21.66;34.83;100730.31;1804773;79;21759;-75
2021/04/18 07:21:45;;;;;;;19.67;13.95;;;;;;;21.78;34.42;100723.61;1772481;79;21194;-75
2021/04/18 07:24:12;;;;;;;15.40;12.78;;;;;;;21.74;34.24;100724.58;1799686;79;21094;-77
2021/04/18 07:26:40;;;;;;;16.97;13.38;;;;;;;21.70;34.29;100726.08;1805168;79;21114;-77
2021/04/18 07:29:14;;;;;;;17.23;11.55;;;;;;;21.60;34.28;100724.41;1806954;78;21057;-77
2021/04/18 07:31:42;;;;;;;21.48;10.60;;;;;;;21.62;33.96;100716.86;1798740;79;21466;-75
2021/04/18 07:34:13;;;;;;;15.65;10.05;;;;;;;21.55;33.54;100720.16;1790434;80;21193;-76
2021/04/18 07:36:45;;;;;;;12.43;10.25;;;;;;;21.48;33.63;100722.09;1807206;77;21189;-77
2021/04/18 07:39:16;;;;;;;13.55;8.73;;;;;;;21.44;33.35;100723.09;1800127;79;21253;-77
2021/04/18 07:41:46;;;;;;;15.20;9.78;;;;;;;21.36;33.21;100723.38;1799476;79;21234;-76
2021/04/18 07:44:15;;;;;;;13.43;10.23;;;;;;;21.35;33.27;100716.77;1810061;79;21094;-77
2021/04/18 07:46:52;;;;;;;12.43;9.73;;;;;;;21.44;33.42;100716.28;1787569;80;21224;-76
2021/04/18 07:49:20;;;;;;;12.93;9.70;;;;;;;21.57;33.22;100719.92;1786654;79;21180;-76
2021/04/18 07:51:48;;;;;;;15.40;10.20;;;;;;;21.60;32.73;100717.59;1790195;80;21197;-75
2021/04/18 07:54:17;;;;;;;12.82;9.43;;;;;;;21.63;33.09;100708.97;1807368;79;21109;-76
2021/04/18 07:56:46;;;;;;;13.65;10.78;;;;;;;21.75;32.91;100707.16;1805244;79;21202;-75
2021/04/18 07:59:15;;;;;;;15.32;12.37;;;;;;;21.92;32.80;100703.84;1799748;77;21446;-77
2021/04/18 08:01:42;;;;;;;13.80;11.65;;;;;;;22.03;32.70;100701.73;1794653;78;21498;-77
2021/04/18 08:04:10;;;;;;;17.30;11.85;;;;;;;21.87;33.01;100703.16;1802083;78;21193;-77
2021/04/18 08:06:41;;;;;;;14.15;11.40;;;;;;;22.04;33.30;100703.40;1804632;77;21189;-76
2021/04/18 08:09:21;;;;;;;16.55;11.60;;;;;;;22.17;32.91;100699.72;1777077;79;21124;-76
2021/04/18 08:12:15;;;;;;;15.32;11.68;;;;;;;22.29;32.69;100692.41;1776259;79;21102;-77
2021/04/18 08:14:48;;;;;;;18.30;12.07;;;;;;;22.43;32.47;100680.78;1795977;79;21643;-77
2021/04/18 08:17:17;;;;;;;14.60;11.30;;;;;;;22.52;31.76;100678.03;1811852;77;21192;-77
2021/04/18 08:19:58;;;;;;;14.45;10.50;;;;;;;22.54;31.91;100670.45;1808588;77;21181;-75
2021/04/18 08:22:46;;;;;;;15.70;10.58;;;;;;;22.61;32.07;100673.08;1788616;80;21573;-77
2021/04/18 08:25:14;;;;;;;14.95;11.20;;;;;;;22.70;31.69;100673.05;1806298;79;21648;-76
2021/04/18 08:28:12;;;;;;;11.65;9.40;;;;;;;22.66;31.34;100678.13;1783258;80;21165;-76
2021/04/18 08:31:02;;;;;;;11.33;8.68;;;;;;;22.56;30.94;100671.58;1791011;78;21568;-76
2021/04/18 08:33:43;;;;;;;10.58;8.73;;;;;;;22.44;30.87;100666.09;1771532;78;21855;-76
2021/04/18 08:36:30;;;;;;;14.50;9.68;;;;;;;22.35;31.24;100663.39;1790130;80;21101;-76
2021/04/18 08:39:08;;;;;;;13.03;10.40;;;;;;;22.26;31.20;100665.06;1802716;77;21144;-77
2021/04/18 08:41:44;;;;;;;13.68;11.70;;;;;;;22.12;30.91;100667.66;1791170;77;21279;-76
2021/04/18 08:44:37;;;;;;;14.63;12.82;;;;;;;21.79;30.95;100668.83;1784828;79;21096;-75
2021/04/18 08:47:09;;;;;;;16.40;11.57;;;;;;;21.48;31.29;100666.23;1789427;79;21074;-76
2021/04/18 08:49:56;;;;;;;16.77;11.60;;;;;;;21.07;31.89;100671.70;1805495;78;21534;-76
2021/04/18 08:52:28;;;;;;;14.05;11.35;;;;;;;20.62;32.91;100666.39;1810904;79;21603;-76
2021/04/18 08:55:00;;;;;;;13.58;10.65;;;;;;;20.45;33.62;100665.20;1806305;78;21101;-75
2021/04/18 08:57:29;;;;;;;13.72;10.20;;;;;;;20.37;34.01;100658.66;1805764;79;21556;-75
2021/04/18 08:59:58;;;;;;;12.45;9.50;;;;;;;20.31;34.32;100650.01;1809841;77;21094;-76
2021/04/18 09:02:27;;;;;;;15.15;9.33;;;;;;;20.34;34.63;100644.11;1801788;77;21097;-76
2021/04/18 09:04:58;;;;;;;15.10;9.88;;;;;;;20.37;33.89;100646.41;1803959;77;21120;-77
2021/04/18 09:07:30;;;;;;;10.85;9.03;;;;;;;20.30;33.91;100641.52;1810516;77;21555;-77
2021/04/18 09:10:03;;;;;;;16.62;10.00;;;;;;;20.29;34.03;100644.77;1803877;79;21128;-75
2021/04/18 09:12:30;;;;;;;13.30;9.43;;;;;;;20.30;33.83;100638.80;1799542;79;21471;-76
2021/04/18 09:14:58;;;;;;;12.53;9.60;;;;;;;20.25;33.70;100641.64;1805199;79;21286;-76
2021/04/18 09:17:29;;;;;;;12.50;10.23;;;;;;;20.22;33.94;100637.19;1803211;79;21190;-76
2021/04/18 09:20:09;;;;;;;13.70;11.20;;;;;;;20.27;34.30;100644.16;1806448;79;21711;-77
2021/04/18 09:22:40;;;;;;;15.83;10.08;;;;;;;20.29;34.35;100642.05;1768948;79;21487;-75
2021/04/18 09:25:15;;;;;;;11.05;8.95;;;;;;;20.28;34.29;100640.39;1781614;80;21201;-77
2021/04/18 09:27:49;;;;;;;11.68;9.10;;;;;;;20.27;34.34;100642.27;1818543;78;21581;-77
2021/04/18 09:30:28;;;;;;;14.60;9.85;;;;;;;20.31;34.25;100629.08;1822268;78;21566;-76
2021/04/18 09:32:59;;;;;;;11.65;9.10;;;;;;;20.38;34.26;100634.47;1808381;79;21114;-76
2021/04/18 09:35:28;;;;;;;9.80;7.75;;;;;;;20.35;33.49;100619.93;1788141;80;21116;-76
2021/04/18 09:38:03;;;;;;;12.60;8.35;;;;;;;20.25;33.86;100621.77;1805364;79;21102;-76
2021/04/18 09:40:32;;;;;;;10.03;8.45;;;;;;;20.24;34.05;100611.42;1802688;79;21113;-76
2021/04/18 09:43:02;;;;;;;14.93;8.68;;;;;;;20.24;34.36;100610.05;1791927;79;21624;-77
2021/04/18 09:45:31;;;;;;;11.80;9.38;;;;;;;20.22;34.19;100604.55;1807064;79;21176;-76
2021/04/18 09:48:11;;;;;;;20.62;9.75;;;;;;;20.08;34.03;100607.86;1805197;79;21208;-77
2021/04/18 09:50:39;;;;;;;16.27;8.40;;;;;;;19.95;34.58;100607.92;1777654;79;21099;-76
2021/04/18 09:53:26;;;;;;;;;;;;;;;19.93;34.94;100604.04;1803354;79;21259;-78
2021/04/18 09:56:07;;;;;;;9.08;7.08;;;;;;;19.98;35.08;100602.03;1805118;77;20277;-76
2021/04/18 09:58:39;;;;;;;9.53;7.47;;;;;;;20.02;34.79;100602.73;1800540;79;21183;-76
2021/04/18 10:01:28;;;;;;;9.55;7.90;;;;;;;20.08;34.60;100603.78;1777718;79;21699;-75
2021/04/18 10:03:56;;;;;;;10.72;8.70;;;;;;;20.13;34.67;100595.80;1799973;78;21161;-76
2021/04/18 10:06:23;;;;;;;12.47;8.60;;;;;;;20.18;34.55;100595.98;1762406;80;21189;-76
2021/04/18 10:09:01;;;;;;;12.60;8.98;;;;;;;20.20;33.97;100591.14;1802203;79;21429;-77
2021/04/18 10:11:29;;;;;;;10.38;8.15;;;;;;;20.15;34.21;100598.30;1807071;79;21751;-76
2021/04/18 10:13:59;;;;;;;15.60;7.28;;;;;;;20.10;34.51;100597.59;1806003;79;21149;-76
2021/04/18 10:16:38;;;;;;;6.65;5.95;;;;;;;20.10;34.41;100590.79;1786988;80;21177;-77
2021/04/18 10:19:18;;;;;;;9.43;7.05;;;;;;;20.13;33.98;100596.33;1801766;77;21200;-77
2021/04/18 10:22:09;;;;;;;26.52;7.20;;;;;;;20.14;33.66;100596.64;1804186;79;21129;-76
2021/04/18 10:24:50;;;;;;;6.70;5.92;;;;;;;20.11;33.41;100592.45;1768902;80;21129;-76
2021/04/18 10:27:21;;;;;;;9.78;6.45;;;;;;;20.09;33.81;100590.48;1822119;78;21081;-75
2021/04/18 10:29:49;;;;;;;13.28;6.40;;;;;;;20.13;33.47;100593.08;1803687;77;21549;-75
2021/04/18 10:32:17;;;;;;;13.13;6.87;;;;;;;20.14;33.54;100594.75;1809148;79;21113;-76
2021/04/18 10:34:47;;;;;;;8.85;6.97;;;;;;;20.16;33.61;100599.42;1774362;79;21145;-77
2021/04/18 10:37:14;;;;;;;8.68;7.15;;;;;;;20.16;33.53;100596.70;1806298;79;21200;-76
2021/04/18 10:39:42;;;;;;;9.55;6.65;;;;;;;20.18;33.47;100600.59;1802726;78;21204;-77
2021/04/18 10:42:10;;;;;;;8.80;7.03;;;;;;;20.18;33.39;100599.23;1802858;79;21187;-76
2021/04/18 10:44:38;;;;;;;7.70;6.47;;;;;;;20.19;33.46;100606.33;1803688;78;21181;-77
2021/04/18 10:47:11;;;;;;;8.33;6.35;;;;;;;20.17;33.55;100606.56;1753109;79;21216;-76
2021/04/18 10:49:37;;;;;;;8.80;6.87;;;;;;;20.17;33.60;100603.84;1806229;79;21629;-74
2021/04/18 10:52:05;;;;;;;10.23;6.60;;;;;;;20.15;33.52;100603.20;1792298;80;21090;-76
2021/04/18 10:54:32;;;;;;;11.93;7.05;;;;;;;20.13;33.49;100602.60;1772284;79;21565;-78
2021/04/18 10:56:59;;;;;;;9.05;6.85;;;;;;;20.11;33.66;100606.05;1804753;78;21133;-76
2021/04/18 10:59:26;;;;;;;7.37;6.03;;;;;;;20.12;33.69;100603.66;1805374;79;21129;-77
2021/04/18 11:01:53;;;;;;;8.88;6.50;;;;;;;20.13;33.48;100599.88;1761388;80;21458;-77
2021/04/18 11:04:21;;;;;;;11.45;7.00;;;;;;;20.14;33.30;100601.55;1820424;78;21476;-77
2021/04/18 11:06:49;;;;;;;8.60;6.47;;;;;;;20.12;33.33;100599.58;1803456;79;21113;-76
2021/04/18 11:09:16;;;;;;;;;;;;;;;20.09;33.35;100596.45;1808003;79;21117;-76
2021/04/18 11:11:43;;;;;;;9.98;6.87;;;;;;;20.08;33.28;100601.59;1808994;79;20248;-76
2021/04/18 11:14:11;;;;;;;9.23;6.42;;;;;;;20.05;33.33;100598.77;1798025;79;33691;-77
2021/04/18 11:16:38;;;;;;;6.30;5.62;;;;;;;20.02;33.25;100597.30;1805327;78;21180;-76
2021/04/18 11:19:06;;;;;;;8.65;5.92;;;;;;;20.02;32.85;100600.02;1790712;79;21567;-76
2021/04/18 11:21:34;;;;;;;8.23;6.92;;;;;;;20.00;32.80;100595.88;1823600;78;21289;-77
2021/04/18 11:24:01;;;;;;;7.80;6.62;;;;;;;20.00;33.04;100599.42;1823696;78;21216;-76
2021/04/18 11:26:29;;;;;;;7.47;6.50;;;;;;;20.01;33.26;100598.36;1818441;78;21195;-78
2021/04/18 11:28:56;;;;;;;7.33;6.37;;;;;;;19.95;33.24;100591.61;1801781;79;21198;-76
2021/04/18 11:31:24;;;;;;;11.03;6.45;;;;;;;19.94;33.20;100585.34;1800100;79;21629;-76